Time;durP1;ratioP1;P1;durP2;ratioP2;P2;SDS_P1;SDS_P2;PMS_P1;PMS_P2;Temp;Humidity;BMP_temperature;BMP_pressure;BME280_temperature;BME280_humidity;BME280_pressure;Samples;Min_cycle;Max_cycle;Signal;HPM_P1;HPM_P2
2023/04/14 00:01:03;;;;;;;9.60;8.80;;;9.00;35.60;;;;;;5003729;28;20173;-78
2023/04/14 00:03:28;;;;;;;9.83;9.23;;;9.00;35.80;;;;;;5005232;28;20173;-74
2023/04/14 00:05:54;;;;;;;9.60;9.10;;;9.00;35.50;;;;;;5006007;28;20205;-79
2023/04/14 00:08:19;;;;;;;10.10;9.30;;;9.20;35.50;;;;;;5006682;28;20643;-79
2023/04/14 00:10:45;;;;;;;9.53;8.93;;;9.40;34.60;;;;;;5006610;28;20205;-79
2023/04/14 00:13:10;;;;;;;8.67;8.27;;;9.50;34.50;;;;;;5005670;28;20691;-78
2023/04/14 00:15:36;;;;;;;9.67;9.07;;;9.80;34.40;;;;;;5005636;28;20204;-77
2023/04/14 00:18:02;;;;;;;8.97;8.47;;;10.00;32.90;;;;;;5006540;28;20182;-78
2023/04/14 00:20:27;;;;;;;9.70;9.10;;;10.20;31.70;;;;;;5010104;28;20567;-78
2023/04/14 00:22:53;;;;;;;9.50;9.00;;;10.40;31.80;;;;;;5009033;28;20716;-76
2023/04/14 00:25:18;;;;;;;10.60;9.80;;;10.50;30.70;;;;;;5005561;28;20209;-79
2023/04/14 00:27:44;;;;;;;9.20;8.60;;;10.50;29.80;;;;;;5006040;28;20537;-79
2023/04/14 00:30:10;;;;;;;9.60;9.10;;;10.60;29.60;;;;;;5003691;28;20313;-78
2023/04/14 00:32:35;;;;;;;9.80;9.00;;;10.70;29.00;;;;;;5006653;28;20240;-79
2023/04/14 00:35:02;;;;;;;9.10;8.77;;;10.80;29.30;;;;;;5002730;28;20517;-79
2023/04/14 00:37:29;;;;;;;9.37;8.87;;;10.80;29.40;;;;;;5005833;28;20527;-79
2023/04/14 00:39:54;;;;;;;10.03;9.10;;;10.70;29.80;;;;;;5004806;28;20587;-79
2023/04/14 00:42:20;;;;;;;9.10;8.63;;;10.50;30.30;;;;;;5007994;28;20447;-79
2023/04/14 00:44:47;;;;;;;10.33;9.63;;;10.40;30.50;;;;;;5003550;28;20263;-78
2023/04/14 00:47:12;;;;;;;10.77;10.17;;;10.20;31.70;;;;;;5007750;28;20660;-80
2023/04/14 00:49:38;;;;;;;10.07;9.53;;;10.20;31.70;;;;;;5002733;28;20555;-78
2023/04/14 00:52:04;;;;;;;11.20;10.60;;;10.30;31.70;;;;;;5008034;28;21259;-79
2023/04/14 00:54:31;;;;;;;11.23;10.73;;;10.30;31.80;;;;;;5006062;28;20181;-79
2023/04/14 00:56:57;;;;;;;10.43;9.90;;;10.30;31.70;;;;;;5007283;28;20416;-76
2023/04/14 00:59:22;;;;;;;10.57;9.97;;;10.40;31.80;;;;;;5004967;28;20443;-75
2023/04/14 01:01:48;;;;;;;9.93;9.43;;;10.40;31.80;;;;;;5003154;28;20184;-79
2023/04/14 01:04:15;;;;;;;11.03;10.43;;;10.20;33.40;;;;;;5004942;28;20201;-78
2023/04/14 01:06:40;;;;;;;11.17;10.37;;;10.30;32.70;;;;;;5002891;28;20178;-75
2023/04/14 01:09:06;;;;;;;10.30;9.70;;;10.20;31.70;;;;;;5005113;28;20528;-79
2023/04/14 01:12:06;;;;;;;10.33;9.83;;;10.30;32.00;;;;;;5005517;28;20176;-79
2023/04/14 01:14:49;;;;;;;10.30;9.80;;;10.40;31.00;;;;;;5003295;28;20423;-79
2023/04/14 01:17:19;;;;;;;9.77;9.17;;;10.40;30.90;;;;;;5005788;28;20408;-77
2023/04/14 01:19:57;;;;;;;10.90;10.30;;;10.50;30.00;;;;;;5006370;28;20447;-80
2023/04/14 01:22:29;;;;;;;10.27;9.43;;;10.60;29.80;;;;;;5008389;28;20467;-79
2023/04/14 01:25:26;;;;;;;11.50;10.80;;;10.70;29.60;;;;;;5001711;28;20464;-77
2023/04/14 01:27:57;;;;;;;10.70;10.10;;;10.70;30.10;;;;;;5003437;28;20413;-80
2023/04/14 01:30:45;;;;;;;11.47;10.87;;;10.70;29.60;;;;;;5003801;28;20447;-76
2023/04/14 01:33:17;;;;;;;11.70;10.90;;;10.70;29.40;;;;;;5003077;28;20412;-79
2023/04/14 01:35:50;;;;;;;11.30;10.80;;;10.70;29.50;;;;;;5001082;28;20416;-75
2023/04/14 01:38:36;;;;;;;12.07;11.17;;;10.80;29.50;;;;;;5003582;28;20426;-79
2023/04/14 01:41:06;;;;;;;11.07;10.47;;;10.80;29.50;;;;;;5004304;28;20432;-79
2023/04/14 01:43:36;;;;;;;10.90;10.20;;;10.80;29.40;;;;;;5001938;28;20455;-75
2023/04/14 01:46:06;;;;;;;11.23;10.60;;;10.80;29.10;;;;;;5002012;28;20467;-79
2023/04/14 01:48:32;;;;;;;10.73;10.03;;;10.80;29.30;;;;;;5001940;28;20422;-79
2023/04/14 01:50:59;;;;;;;10.87;9.97;;;10.80;29.20;;;;;;5003206;28;20432;-79
2023/04/14 01:53:27;;;;;;;11.33;10.73;;;10.70;28.60;;;;;;4998851;28;20420;-79
2023/04/14 01:55:54;;;;;;;9.97;9.37;;;10.70;28.90;;;;;;4997840;28;20420;-79
2023/04/14 01:58:21;;;;;;;11.10;10.20;;;10.60;28.80;;;;;;4998037;28;20412;-77
2023/04/14 02:00:48;;;;;;;10.37;9.73;;;10.60;29.10;;;;;;5001227;28;20436;-78
2023/04/14 02:03:17;;;;;;;11.80;10.67;;;10.60;28.60;;;;;;5000386;28;20425;-74
2023/04/14 02:05:43;;;;;;;10.50;10.00;;;10.50;28.70;;;;;;4997836;28;20827;-78
2023/04/14 02:08:12;;;;;;;9.70;9.20;;;10.50;28.80;;;;;;4998608;28;20408;-79
2023/04/14 02:10:41;;;;;;;10.47;9.93;;;10.60;28.60;;;;;;4996459;28;20432;-78
2023/04/14 02:13:09;;;;;;;9.60;9.20;;;10.60;28.70;;;;;;4999123;28;20442;-79
2023/04/14 02:15:36;;;;;;;10.50;9.90;;;10.60;28.80;;;;;;5003674;28;20412;-76
2023/04/14 02:18:04;;;;;;;10.60;9.97;;;10.50;28.80;;;;;;5005309;28;20977;-79
2023/04/14 02:20:31;;;;;;;11.23;10.53;;;10.60;29.00;;;;;;5007178;28;20467;-79
2023/04/14 02:22:57;;;;;;;10.73;10.10;;;10.60;29.00;;;;;;5017068;28;20416;-77
2023/04/14 02:25:26;;;;;;;11.60;10.70;;;10.60;28.90;;;;;;5015684;28;20554;-74
2023/04/14 02:27:55;;;;;;;11.03;10.10;;;10.30;28.80;;;;;;5004102;28;20173;-79
2023/04/14 02:30:26;;;;;;;10.53;10.00;;;9.90;30.60;;;;;;5004122;28;20500;-78
2023/04/14 02:33:04;;;;;;;11.10;10.43;;;9.60;31.90;;;;;;5002799;28;20409;-79
2023/04/14 02:35:38;;;;;;;11.50;10.70;;;9.40;31.90;;;;;;5017582;28;20922;-80
2023/04/14 02:38:21;;;;;;;11.10;10.53;;;9.30;32.30;;;;;;5022079;28;20416;-80
2023/04/14 02:40:46;;;;;;;11.80;10.97;;;9.20;33.90;;;;;;5012309;28;20448;-80
2023/04/14 02:43:27;;;;;;;11.17;10.47;;;9.20;34.30;;;;;;5004709;28;20426;-74
2023/04/14 02:45:54;;;;;;;11.03;10.27;;;9.40;33.80;;;;;;5002238;28;20251;-75
2023/04/14 02:48:23;;;;;;;10.80;10.13;;;9.50;32.90;;;;;;4999399;28;20412;-73
2023/04/14 02:50:51;;;;;;;11.50;10.73;;;9.60;32.40;;;;;;5004029;28;20507;-78
2023/04/14 02:53:20;;;;;;;11.10;10.50;;;9.80;32.30;;;;;;5015365;28;20412;-79
2023/04/14 02:55:49;;;;;;;11.40;10.83;;;9.90;31.70;;;;;;5017473;28;20491;-79
2023/04/14 02:58:15;;;;;;;12.60;11.70;;;10.00;30.50;;;;;;5015852;28;20417;-79
2023/04/14 03:00:42;;;;;;;11.60;10.80;;;10.00;30.30;;;;;;5017482;28;20446;-79
2023/04/14 03:03:10;;;;;;;11.47;10.60;;;9.90;31.00;;;;;;5015051;28;20424;-79
2023/04/14 03:05:37;;;;;;;11.97;11.20;;;9.40;31.90;;;;;;5013630;28;20467;-78
2023/04/14 03:08:04;;;;;;;11.20;10.50;;;9.20;33.10;;;;;;5005068;28;20990;-78
2023/04/14 03:10:30;;;;;;;12.00;10.87;;;9.00;34.00;;;;;;5002109;28;20436;-78
2023/04/14 03:13:00;;;;;;;11.77;11.07;;;8.80;34.50;;;;;;5005047;28;21013;-76
2023/04/14 03:15:26;;;;;;;11.27;10.67;;;8.70;34.80;;;;;;5003085;28;20491;-79
2023/04/14 03:17:56;;;;;;;11.17;10.47;;;8.80;34.70;;;;;;5004536;28;20434;-74
2023/04/14 03:20:22;;;;;;;10.63;10.03;;;8.80;35.50;;;;;;5002620;28;20527;-78
2023/04/14 03:23:05;;;;;;;11.60;10.80;;;9.10;35.10;;;;;;5007614;28;20420;-79
2023/04/14 03:25:34;;;;;;;12.73;11.70;;;9.30;34.50;;;;;;5017002;28;20546;-79
2023/04/14 03:28:01;;;;;;;12.40;11.70;;;9.50;33.70;;;;;;5019568;28;20423;-78
2023/04/14 03:30:33;;;;;;;11.00;10.50;;;9.70;32.50;;;;;;5023769;28;20458;-78
2023/04/14 03:33:04;;;;;;;11.27;10.50;;;9.80;32.30;;;;;;5022339;28;20482;-77
2023/04/14 03:35:31;;;;;;;11.37;10.57;;;9.90;31.00;;;;;;5021115;28;20408;-79
2023/04/14 03:37:59;;;;;;;11.40;10.80;;;10.10;30.10;;;;;;5027856;28;20400;-75
2023/04/14 03:40:30;;;;;;;11.17;10.43;;;10.20;29.40;;;;;;5028022;28;20482;-77
2023/04/14 03:42:57;;;;;;;10.93;10.10;;;10.10;29.20;;;;;;5038693;28;20508;-75
2023/04/14 03:45:25;;;;;;;11.30;10.70;;;9.60;31.70;;;;;;5046800;28;20483;-75
2023/04/14 03:47:56;;;;;;;11.93;11.13;;;9.30;33.10;;;;;;5026902;28;20430;-74
2023/04/14 03:50:25;;;;;;;11.27;10.67;;;9.10;33.40;;;;;;5024936;28;20432;-76
2023/04/14 03:52:52;;;;;;;11.83;11.23;;;8.90;32.80;;;;;;5017876;28;20443;-77
2023/04/14 03:55:19;;;;;;;10.43;9.83;;;8.90;32.80;;;;;;5011316;28;20489;-75
2023/04/14 03:57:46;;;;;;;12.50;11.50;;;8.80;33.10;;;;;;5011771;28;20423;-79
2023/04/14 04:00:14;;;;;;;10.97;10.27;;;8.80;32.80;;;;;;5024257;28;21182;-78
2023/04/14 04:02:41;;;;;;;10.50;9.90;;;9.00;32.70;;;;;;5012189;28;20412;-78
2023/04/14 04:05:08;;;;;;;11.03;10.27;;;8.90;32.50;;;;;;5011982;28;20470;-78
2023/04/14 04:07:36;;;;;;;11.73;10.93;;;9.10;33.20;;;;;;5012360;28;20559;-77
2023/04/14 04:10:05;;;;;;;12.10;11.30;;;9.40;32.80;;;;;;5010933;28;20498;-78
2023/04/14 04:12:31;;;;;;;12.33;11.50;;;9.60;32.10;;;;;;5012928;28;20897;-76
2023/04/14 04:14:57;;;;;;;12.30;11.20;;;9.80;30.20;;;;;;5017413;28;20426;-78
2023/04/14 04:17:23;;;;;;;11.27;10.73;;;9.90;29.70;;;;;;5016164;28;20499;-78
2023/04/14 04:19:50;;;;;;;11.00;10.40;;;10.00;28.50;;;;;;5014575;28;20193;-79
2023/04/14 04:22:19;;;;;;;12.30;11.30;;;10.10;28.30;;;;;;5014799;28;20443;-79
2023/04/14 04:24:46;;;;;;;11.20;10.60;;;10.20;28.30;;;;;;5013478;28;20467;-75
2023/04/14 04:27:12;;;;;;;11.27;10.63;;;10.20;27.90;;;;;;5017027;28;20420;-79
2023/04/14 04:29:38;;;;;;;11.43;10.77;;;10.20;27.90;;;;;;5017247;28;20520;-78
2023/04/14 04:32:05;;;;;;;11.27;10.67;;;10.20;28.00;;;;;;5017269;28;20413;-78
2023/04/14 04:34:31;;;;;;;12.27;11.67;;;10.20;28.50;;;;;;5017107;28;20417;-79
2023/04/14 04:36:59;;;;;;;12.47;11.43;;;10.30;27.70;;;;;;5015476;28;20432;-79
2023/04/14 04:39:25;;;;;;;11.33;10.67;;;10.30;27.60;;;;;;5021153;28;20867;-79
2023/04/14 04:42:00;;;;;;;12.37;11.17;;;10.40;27.40;;;;;;5021395;28;20479;-79
2023/04/14 04:44:25;;;;;;;11.00;10.50;;;10.30;27.40;;;;;;5017706;28;20679;-76
2023/04/14 04:46:53;;;;;;;11.40;10.50;;;10.30;27.50;;;;;;5016747;28;20427;-78
2023/04/14 04:49:19;;;;;;;12.00;11.10;;;10.20;27.80;;;;;;5017155;28;20220;-79
2023/04/14 04:51:45;;;;;;;10.13;9.53;;;10.20;27.50;;;;;;5017362;28;20419;-78
2023/04/14 04:54:10;;;;;;;10.90;10.30;;;10.20;26.80;;;;;;5018998;28;20432;-78
2023/04/14 04:56:36;;;;;;;10.50;9.90;;;10.10;26.80;;;;;;5016618;28;20173;-78
2023/04/14 04:59:02;;;;;;;11.17;10.43;;;10.10;27.20;;;;;;5016381;28;20202;-78
2023/04/14 05:01:27;;;;;;;12.17;11.57;;;10.10;27.30;;;;;;5017734;28;20181;-79
2023/04/14 05:03:53;;;;;;;10.57;9.67;;;10.10;27.20;;;;;;5018352;28;20284;-78
2023/04/14 05:06:19;;;;;;;11.07;10.50;;;10.20;27.40;;;;;;5018009;28;20184;-79
2023/04/14 05:08:45;;;;;;;10.73;10.23;;;10.20;27.10;;;;;;5019192;28;20423;-79
2023/04/14 05:11:10;;;;;;;12.67;11.40;;;10.10;27.20;;;;;;5020069;28;20524;-78
2023/04/14 05:13:36;;;;;;;14.17;12.97;;;10.10;27.30;;;;;;5016989;28;20177;-77
2023/04/14 05:16:06;;;;;;;12.20;11.30;;;10.10;28.00;;;;;;5015848;28;20188;-77
2023/04/14 05:18:32;;;;;;;12.40;11.33;;;10.10;28.10;;;;;;5017491;28;20195;-78
2023/04/14 05:21:02;;;;;;;12.47;11.70;;;10.10;28.10;;;;;;5017965;28;21002;-79
2023/04/14 05:23:28;;;;;;;13.10;12.00;;;10.10;27.70;;;;;;5016677;28;20424;-79
2023/04/14 05:25:57;;;;;;;13.20;12.40;;;10.10;27.30;;;;;;5014712;28;20537;-79
2023/04/14 05:28:22;;;;;;;12.80;12.10;;;10.00;28.90;;;;;;5013713;28;20536;-79
2023/04/14 05:30:49;;;;;;;11.93;11.23;;;9.80;29.90;;;;;;5030476;28;20428;-80
2023/04/14 05:33:14;;;;;;;11.73;11.03;;;9.80;29.60;;;;;;5012910;28;20203;-78
2023/04/14 05:35:40;;;;;;;12.33;11.43;;;9.60;29.70;;;;;;5013049;28;20488;-79
2023/04/14 05:38:06;;;;;;;11.77;10.87;;;9.70;29.80;;;;;;5011902;28;20189;-79
2023/04/14 05:40:32;;;;;;;12.50;11.50;;;9.70;29.60;;;;;;5012019;28;20563;-80
2023/04/14 05:42:58;;;;;;;13.63;12.83;;;9.70;29.40;;;;;;5027991;28;20605;-78
2023/04/14 05:45:24;;;;;;;12.67;11.97;;;9.80;30.20;;;;;;5014356;28;20470;-78
2023/04/14 05:47:50;;;;;;;13.17;12.33;;;9.60;29.70;;;;;;5003831;28;20576;-79
2023/04/14 05:50:15;;;;;;;12.40;11.53;;;9.50;31.70;;;;;;4996840;28;20460;-77
2023/04/14 05:52:41;;;;;;;13.40;12.53;;;9.50;31.70;;;;;;4993944;28;20433;-76
2023/04/14 05:55:07;;;;;;;14.57;13.40;;;9.50;32.10;;;;;;5004591;28;20376;-78
2023/04/14 05:57:33;;;;;;;14.00;13.10;;;9.30;32.80;;;;;;5015653;28;20181;-79
2023/04/14 05:59:59;;;;;;;14.70;13.87;;;9.30;33.80;;;;;;5015040;28;20494;-78
2023/04/14 06:02:25;;;;;;;13.17;12.10;;;9.30;34.30;;;;;;5016042;28;20416;-78
2023/04/14 06:04:50;;;;;;;13.00;12.13;;;9.30;34.70;;;;;;5014312;28;20235;-79
2023/04/14 06:07:16;;;;;;;13.83;12.93;;;9.40;35.10;;;;;;5015468;28;20180;-79
2023/04/14 06:09:41;;;;;;;15.10;13.50;;;9.50;34.30;;;;;;5030143;28;20675;-79
2023/04/14 06:12:07;;;;;;;14.00;12.87;;;9.50;34.10;;;;;;5017613;28;20173;-80
2023/04/14 06:14:33;;;;;;;13.57;12.77;;;9.50;35.40;;;;;;5016931;28;20204;-78
2023/04/14 06:16:58;;;;;;;14.97;13.67;;;9.50;34.80;;;;;;5015221;28;20474;-78
2023/04/14 06:19:24;;;;;;;15.13;14.10;;;9.60;34.00;;;;;;5017408;28;20197;-78
2023/04/14 06:21:50;;;;;;;13.47;12.67;;;9.60;33.30;;;;;;5016137;28;20212;-78
2023/04/14 06:24:16;;;;;;;15.23;14.03;;;9.60;33.60;;;;;;5017170;28;20169;-79
2023/04/14 06:26:41;;;;;;;13.97;13.07;;;9.60;33.70;;;;;;5017793;28;20404;-79
2023/04/14 06:29:07;;;;;;;13.70;12.70;;;9.60;33.20;;;;;;5014979;28;20220;-78
2023/04/14 06:31:33;;;;;;;13.23;12.33;;;9.60;32.90;;;;;;5012905;28;20177;-78
2023/04/14 06:33:59;;;;;;;13.83;12.80;;;9.60;32.40;;;;;;5016671;28;20545;-77
2023/04/14 06:36:25;;;;;;;13.17;12.50;;;9.50;32.50;;;;;;5016827;28;20440;-77
2023/04/14 06:38:51;;;;;;;13.37;12.67;;;9.50;32.00;;;;;;5016244;28;20486;-80
2023/04/14 06:41:17;;;;;;;12.40;11.60;;;9.60;32.60;;;;;;5016721;28;20446;-78
2023/04/14 06:43:42;;;;;;;14.10;12.77;;;9.50;30.60;;;;;;5016428;28;20176;-79
2023/04/14 06:46:08;;;;;;;12.03;11.23;;;9.60;30.30;;;;;;5015947;28;20268;-80
2023/04/14 06:48:34;;;;;;;12.87;11.97;;;9.70;30.00;;;;;;5013787;28;20166;-79
2023/04/14 06:50:59;;;;;;;13.27;12.47;;;9.80;30.30;;;;;;5017931;28;20205;-75
2023/04/14 06:53:25;;;;;;;11.60;10.90;;;9.90;29.60;;;;;;5018927;28;20264;-79
2023/04/14 06:55:57;;;;;;;13.50;12.50;;;9.80;28.80;;;;;;5014631;28;20189;-80
2023/04/14 06:58:27;;;;;;;12.60;11.80;;;9.80;29.20;;;;;;5016554;28;20646;-80
2023/04/14 07:00:57;;;;;;;11.77;11.00;;;9.70;29.30;;;;;;5014798;28;20444;-79
2023/04/14 07:03:23;;;;;;;12.60;11.80;;;9.70;28.60;;;;;;5016340;28;20412;-79
2023/04/14 07:05:49;;;;;;;13.23;12.43;;;9.60;29.10;;;;;;5015747;28;20471;-79
2023/04/14 07:08:15;;;;;;;11.17;10.60;;;9.80;28.60;;;;;;5014567;28;20490;-79
2023/04/14 07:10:41;;;;;;;13.13;12.30;;;9.90;28.20;;;;;;5030571;28;20209;-77
2023/04/14 07:13:06;;;;;;;12.50;11.50;;;9.90;29.30;;;;;;5016285;28;20960;-78
2023/04/14 07:15:32;;;;;;;12.90;12.10;;;9.90;30.20;;;;;;5014016;28;20367;-76
2023/04/14 07:17:58;;;;;;;14.03;13.23;;;9.90;29.60;;;;;;5032521;28;20243;-78
2023/04/14 07:20:24;;;;;;;15.57;13.97;;;9.90;29.80;;;;;;5015482;28;20558;-79
2023/04/14 07:22:49;;;;;;;12.63;11.87;;;9.90;30.30;;;;;;5018501;28;20181;-80
2023/04/14 07:25:15;;;;;;;13.50;12.17;;;10.00;29.90;;;;;;5024787;28;20539;-77
2023/04/14 07:27:41;;;;;;;12.00;11.20;;;10.00;29.30;;;;;;5028800;28;20184;-77
2023/04/14 07:30:07;;;;;;;13.47;12.57;;;10.00;28.40;;;;;;5029226;28;20205;-76
2023/04/14 07:32:32;;;;;;;13.63;12.60;;;10.00;29.00;;;;;;5045029;28;20184;-77
2023/04/14 07:34:58;;;;;;;16.50;13.07;;;9.80;30.50;;;;;;5027811;28;20496;-79
2023/04/14 07:37:24;;;;;;;12.33;11.37;;;9.80;30.30;;;;;;5020624;28;20193;-78
2023/04/14 07:39:50;;;;;;;11.73;10.13;;;10.00;28.60;;;;;;5026854;28;20223;-78
2023/04/14 07:42:15;;;;;;;10.77;10.10;;;10.10;27.20;;;;;;5027856;28;20408;-77
2023/04/14 07:44:41;;;;;;;8.90;8.30;;;10.30;26.30;;;;;;5029971;28;20251;-76
2023/04/14 07:47:07;;;;;;;10.10;9.60;;;10.40;24.80;;;;;;5028774;28;20176;-77
2023/04/14 07:49:32;;;;;;;9.30;8.70;;;10.50;23.90;;;;;;5029242;28;20213;-76
2023/04/14 07:51:58;;;;;;;8.27;7.70;;;10.70;23.70;;;;;;5029842;28;20204;-78
2023/04/14 07:54:24;;;;;;;9.30;8.63;;;10.80;23.70;;;;;;5023103;28;20542;-76
2023/04/14 07:56:50;;;;;;;9.13;8.73;;;11.00;23.60;;;;;;5022316;28;20431;-77
2023/04/14 07:59:15;;;;;;;10.50;9.70;;;11.10;23.50;;;;;;5021778;28;20206;-75
2023/04/14 08:01:41;;;;;;;9.93;9.33;;;11.20;23.00;;;;;;5020204;28;20184;-77
2023/04/14 08:04:06;;;;;;;9.47;8.97;;;11.20;23.20;;;;;;5021194;28;20178;-78
2023/04/14 08:06:32;;;;;;;9.07;8.57;;;11.20;23.30;;;;;;5019176;28;20678;-77
2023/04/14 08:08:58;;;;;;;8.80;8.40;;;11.10;23.20;;;;;;5019314;28;20189;-77
2023/04/14 08:11:23;;;;;;;13.20;12.00;;;11.10;23.90;;;;;;5016900;28;20177;-78
2023/04/14 08:13:51;;;;;;;12.27;11.13;;;11.10;25.50;;;;;;5018532;28;20620;-79
2023/04/14 08:16:17;;;;;;;11.97;11.20;;;11.10;26.30;;;;;;5020318;28;20263;-77
2023/04/14 08:18:42;;;;;;;11.40;10.50;;;11.10;26.40;;;;;;5018538;28;20498;-78
2023/04/14 08:21:08;;;;;;;10.57;9.87;;;11.20;25.50;;;;;;5001036;28;20185;-77
2023/04/14 08:23:34;;;;;;;9.57;9.10;;;11.20;24.70;;;;;;5017556;28;20182;-78
2023/04/14 08:25:59;;;;;;;8.70;8.07;;;11.20;22.60;;;;;;5017635;28;20209;-78
2023/04/14 08:28:27;;;;;;;8.77;8.17;;;11.40;22.30;;;;;;5018246;28;20184;-77
2023/04/14 08:30:53;;;;;;;9.80;8.90;;;11.50;21.00;;;;;;5018506;28;20209;-76
2023/04/14 08:33:18;;;;;;;9.57;8.87;;;11.60;20.20;;;;;;5020158;28;20755;-78
2023/04/14 08:35:44;;;;;;;9.10;8.33;;;11.70;20.10;;;;;;5019005;28;20870;-79
2023/04/14 08:38:09;;;;;;;8.20;7.80;;;11.70;20.00;;;;;;5021862;28;20193;-79
2023/04/14 08:40:40;;;;;;;9.50;8.80;;;11.70;19.60;;;;;;5021371;28;20216;-78
2023/04/14 08:43:06;;;;;;;10.10;7.93;;;11.70;20.00;;;;;;5019851;28;20189;-79
2023/04/14 08:45:35;;;;;;;8.73;8.33;;;11.70;20.30;;;;;;5019119;28;20467;-77
2023/04/14 08:48:02;;;;;;;8.37;7.97;;;11.70;20.00;;;;;;5017713;28;20443;-75
2023/04/14 08:50:36;;;;;;;9.40;8.80;;;11.80;20.60;;;;;;5019622;28;20432;-80
2023/04/14 08:53:04;;;;;;;8.70;8.20;;;11.60;21.90;;;;;;5018655;28;20444;-77
2023/04/14 08:55:32;;;;;;;9.80;9.00;;;11.60;22.50;;;;;;5018907;28;20527;-77
2023/04/14 08:57:59;;;;;;;9.13;8.60;;;11.70;22.30;;;;;;5018935;28;20408;-78
2023/04/14 09:00:25;;;;;;;9.30;8.70;;;11.70;22.10;;;;;;5018229;28;20512;-77
2023/04/14 09:02:51;;;;;;;9.80;8.93;;;11.80;21.80;;;;;;5016743;28;20943;-78
2023/04/14 09:05:17;;;;;;;8.70;8.20;;;11.90;21.60;;;;;;5017344;28;20699;-78
2023/04/14 09:07:43;;;;;;;9.60;9.17;;;11.90;21.50;;;;;;5018437;28;20806;-77
2023/04/14 09:10:12;;;;;;;9.33;8.73;;;11.90;21.40;;;;;;5016364;28;20424;-79
2023/04/14 09:12:39;;;;;;;9.53;9.03;;;11.80;21.50;;;;;;5018190;28;20442;-78
2023/04/14 09:15:05;;;;;;;10.30;9.60;;;11.90;20.70;;;;;;5018875;28;20408;-77
2023/04/14 09:17:31;;;;;;;9.53;8.73;;;11.90;21.40;;;;;;5018016;28;20414;-78
2023/04/14 09:19:58;;;;;;;8.93;8.37;;;12.10;21.00;;;;;;5019497;28;20690;-79
2023/04/14 09:22:23;;;;;;;9.80;9.30;;;12.30;21.20;;;;;;5019143;28;20823;-79
2023/04/14 09:24:50;;;;;;;9.80;8.97;;;12.40;21.00;;;;;;5018385;28;20478;-78
2023/04/14 09:27:15;;;;;;;8.93;8.43;;;12.60;19.50;;;;;;5018098;28;20182;-79
2023/04/14 09:29:41;;;;;;;8.63;8.13;;;12.80;19.00;;;;;;5019968;28;20451;-79
2023/04/14 09:32:08;;;;;;;9.23;8.53;;;13.10;19.00;;;;;;5037694;28;20178;-79
2023/04/14 09:34:33;;;;;;;10.40;9.70;;;13.30;18.80;;;;;;5016268;28;20416;-79
2023/04/14 09:37:07;;;;;;;9.03;8.33;;;13.50;19.00;;;;;;5030094;28;20752;-78
2023/04/14 09:39:48;;;;;;;10.67;9.57;;;13.70;17.70;;;;;;5013641;28;20217;-76
2023/04/14 09:42:13;;;;;;;8.70;8.10;;;13.90;17.90;;;;;;5013661;28;20825;-78
2023/04/14 09:44:56;;;;;;;9.13;8.30;;;13.90;16.80;;;;;;5017376;28;20463;-79
2023/04/14 09:47:23;;;;;;;7.23;7.03;;;13.60;17.30;;;;;;5029653;28;20197;-79
2023/04/14 09:49:56;;;;;;;8.60;8.10;;;13.50;17.30;;;;;;5012934;28;20443;-79
2023/04/14 09:52:34;;;;;;;8.83;8.23;;;13.70;17.60;;;;;;5014216;28;20427;-79
2023/04/14 09:55:00;;;;;;;8.47;7.97;;;13.80;17.00;;;;;;5017308;28;20807;-80
2023/04/14 09:57:27;;;;;;;8.90;8.30;;;14.00;15.20;;;;;;5017462;28;20416;-78
2023/04/14 09:59:57;;;;;;;7.73;7.23;;;14.00;15.90;;;;;;5017535;28;20724;-82
2023/04/14 10:02:22;;;;;;;9.10;8.50;;;14.00;14.90;;;;;;5016010;28;20440;-80
2023/04/14 10:05:03;;;;;;;8.07;7.47;;;13.90;14.50;;;;;;5015080;28;20452;-79
2023/04/14 10:07:29;;;;;;;9.57;8.87;;;13.70;14.30;;;;;;5017098;28;20170;-79
2023/04/14 10:09:55;;;;;;;8.60;7.90;;;13.70;16.20;;;;;;5015133;28;20807;-79
2023/04/14 10:12:21;;;;;;;8.40;7.93;;;13.70;15.20;;;;;;5014204;28;20412;-79
2023/04/14 10:14:46;;;;;;;8.10;7.60;;;13.80;15.70;;;;;;5015371;28;20258;-79
2023/04/14 10:17:13;;;;;;;9.20;8.37;;;13.70;14.30;;;;;;5016430;28;20265;-78
2023/04/14 10:19:39;;;;;;;8.97;8.37;;;13.70;14.10;;;;;;5011718;28;20248;-79
2023/04/14 10:22:05;;;;;;;9.20;8.70;;;13.70;14.80;;;;;;5012466;28;20416;-80
2023/04/14 10:24:31;;;;;;;8.27;7.67;;;13.90;13.60;;;;;;5012244;28;20237;-79
2023/04/14 10:27:01;;;;;;;8.37;7.80;;;14.00;13.40;;;;;;5014267;28;20417;-80
2023/04/14 10:29:28;;;;;;;8.67;8.27;;;14.00;13.40;;;;;;5012488;28;20519;-80
2023/04/14 10:31:59;;;;;;;8.67;7.90;;;14.10;13.10;;;;;;5012036;28;20421;-80
2023/04/14 10:34:27;;;;;;;8.13;7.43;;;14.10;13.00;;;;;;5012463;28;20423;-80
2023/04/14 10:36:53;;;;;;;8.50;8.03;;;14.00;13.20;;;;;;5013154;28;20531;-81
2023/04/14 10:39:23;;;;;;;8.27;7.60;;;14.00;13.20;;;;;;5013821;28;20452;-79
2023/04/14 10:41:50;;;;;;;8.40;7.77;;;14.10;12.80;;;;;;5011763;28;20189;-79
2023/04/14 10:44:34;;;;;;;7.97;7.47;;;14.20;12.20;;;;;;5013382;28;20804;-81
2023/04/14 10:47:01;;;;;;;6.97;6.67;;;14.20;11.90;;;;;;5014014;28;20412;-81
2023/04/14 10:49:38;;;;;;;8.03;7.63;;;14.30;11.90;;;;;;5013627;28;20436;-79
2023/04/14 10:52:05;;;;;;;7.70;7.07;;;14.30;13.10;;;;;;5016076;28;20412;-81
2023/04/14 10:54:52;;;;;;;8.03;7.53;;;14.40;12.30;;;;;;5015433;28;20471;-81
2023/04/14 10:57:25;;;;;;;8.67;8.23;;;14.30;11.80;;;;;;5019683;28;20801;-81
2023/04/14 10:59:55;;;;;;;8.93;8.30;;;14.20;12.60;;;;;;5023383;28;20432;-80
2023/04/14 11:02:31;;;;;;;8.47;7.97;;;14.10;12.60;;;;;;5022089;28;20444;-78
2023/04/14 11:05:09;;;;;;;8.13;7.70;;;14.10;12.80;;;;;;5019162;28;20985;-81
2023/04/14 11:07:44;;;;;;;8.33;7.83;;;14.00;11.90;;;;;;5016790;28;20431;-81
2023/04/14 11:10:16;;;;;;;8.30;7.73;;;14.10;11.70;;;;;;5016248;28;20558;-81
2023/04/14 11:12:43;;;;;;;7.80;7.50;;;14.30;11.40;;;;;;5014996;28;20926;-79
2023/04/14 11:15:09;;;;;;;8.33;7.93;;;14.30;10.90;;;;;;5017422;28;20413;-81
2023/04/14 11:17:39;;;;;;;8.97;8.20;;;14.30;12.20;;;;;;5015941;28;20431;-81
2023/04/14 11:20:18;;;;;;;8.60;8.10;;;14.30;11.90;;;;;;5015801;28;20193;-81
2023/04/14 11:22:46;;;;;;;9.20;8.90;;;14.30;12.20;;;;;;5014699;28;20503;-81
2023/04/14 11:25:14;;;;;;;7.77;7.47;;;14.30;11.80;;;;;;5017340;28;20619;-81
2023/04/14 11:27:41;;;;;;;8.73;8.23;;;14.30;11.40;;;;;;5015880;28;20422;-82
2023/04/14 11:30:13;;;;;;;8.77;8.00;;;14.30;11.50;;;;;;5016160;28;20438;-80
2023/04/14 11:32:58;;;;;;;9.03;8.27;;;14.30;11.30;;;;;;5014001;28;20417;-79
2023/04/14 11:35:26;;;;;;;8.80;8.23;;;14.10;12.20;;;;;;5016781;28;20467;-81
2023/04/14 11:37:56;;;;;;;9.93;9.20;;;14.30;12.20;;;;;;5015393;28;20427;-81
2023/04/14 11:40:25;;;;;;;8.13;7.70;;;14.40;10.50;;;;;;5014889;28;20463;-81
2023/04/14 11:42:56;;;;;;;7.70;7.40;;;14.50;10.80;;;;;;5015627;28;20409;-81
2023/04/14 11:45:26;;;;;;;8.17;7.60;;;14.40;10.30;;;;;;5015984;28;20522;-82
2023/04/14 11:47:55;;;;;;;7.70;7.40;;;14.40;11.50;;;;;;5014676;28;20877;-81
2023/04/14 11:50:22;;;;;;;7.47;7.17;;;14.40;11.70;;;;;;5015705;28;20455;-82
2023/04/14 11:52:48;;;;;;;8.40;8.00;;;14.40;10.80;;;;;;5013730;28;20443;-80
2023/04/14 11:55:14;;;;;;;7.73;7.27;;;14.40;10.00;;;;;;5008446;28;20439;-83
2023/04/14 11:57:46;;;;;;;11.37;8.40;;;14.20;10.80;;;;;;5006419;28;20209;-82
2023/04/14 12:00:12;;;;;;;8.03;7.63;;;14.10;10.10;;;;;;5018209;28;20304;-80
2023/04/14 12:02:41;;;;;;;7.70;7.30;;;14.10;9.40;;;;;;5017671;28;20868;-79
2023/04/14 12:05:07;;;;;;;8.20;7.80;;;14.10;9.10;;;;;;5013923;28;20460;-77
2023/04/14 12:07:34;;;;;;;8.30;7.80;;;14.10;9.50;;;;;;5018379;28;20802;-79
2023/04/14 12:09:59;;;;;;;8.13;7.73;;;14.00;10.60;;;;;;5031220;28;20448;-81
2023/04/14 12:12:27;;;;;;;8.10;7.70;;;14.00;10.30;;;;;;5001177;28;20417;-79
2023/04/14 12:14:53;;;;;;;7.70;7.40;;;14.10;10.50;;;;;;5014705;28;20178;-81
2023/04/14 12:17:20;;;;;;;8.07;7.77;;;14.20;11.50;;;;;;5020204;28;20417;-81
2023/04/14 12:19:45;;;;;;;7.37;6.97;;;14.20;10.50;;;;;;5017958;28;20482;-79
2023/04/14 12:22:12;;;;;;;7.50;6.90;;;14.30;11.50;;;;;;5014496;28;20416;-81
2023/04/14 12:24:42;;;;;;;7.17;6.87;;;14.40;10.40;;;;;;5015507;28;20280;-82
2023/04/14 12:27:08;;;;;;;8.73;8.33;;;14.40;10.30;;;;;;5015991;28;20838;-80
2023/04/14 12:29:35;;;;;;;8.10;7.70;;;14.30;10.70;;;;;;5015579;28;20511;-78
2023/04/14 12:32:03;;;;;;;8.00;7.50;;;14.30;10.50;;;;;;5015163;28;20470;-80
2023/04/14 12:34:30;;;;;;;7.30;6.90;;;14.20;9.80;;;;;;5015208;28;20428;-78
2023/04/14 12:36:55;;;;;;;8.63;7.57;;;14.10;9.90;;;;;;5016902;28;21014;-80
2023/04/14 12:39:24;;;;;;;8.33;7.70;;;14.00;10.30;;;;;;5016510;28;20543;-80
2023/04/14 12:41:49;;;;;;;7.50;7.10;;;14.00;10.20;;;;;;5017895;28;20511;-80
2023/04/14 12:44:17;;;;;;;7.53;7.13;;;13.90;9.90;;;;;;5018177;28;20471;-79